sensor_id;sensor_type;location;lat;lon;timestamp;pressure;altitude;pressure_sealevel;temperature;humidity
11339;BME280;5724;42.684;23.252;2023-01-13T00:01:11;94687.63;;;1.18;100.00
11339;BME280;5724;42.684;23.252;2023-01-13T00:03:37;94686.88;;;0.93;100.00
11339;BME280;5724;42.684;23.252;2023-01-13T00:06:03;94684.59;;;0.81;100.00
11339;BME280;5724;42.684;23.252;2023-01-13T00:08:29;94687.09;;;0.78;100.00
11339;BME280;5724;42.684;23.252;2023-01-13T00:10:55;94687.34;;;0.76;100.00
11339;BME280;5724;42.684;23.252;2023-01-13T00:13:20;94691.06;;;0.80;100.00
11339;BME280;5724;42.684;23.252;2023-01-13T00:18:22;94692.97;;;0.80;100.00
11339;BME280;5724;42.684;23.252;2023-01-13T00:21:13;94683.81;;;0.81;100.00
11339;BME280;5724;42.684;23.252;2023-01-13T00:23:39;94689.28;;;1.13;100.00
11339;BME280;5724;42.684;23.252;2023-01-13T00:26:07;94694.88;;;1.36;100.00
11339;BME280;5724;42.684;23.252;2023-01-13T00:28:33;94688.19;;;1.14;100.00
11339;BME280;5724;42.684;23.252;2023-01-13T00:31:10;94678.88;;;0.88;100.00
11339;BME280;5724;42.684;23.252;2023-01-13T00:33:36;94675.75;;;0.81;100.00
11339;BME280;5724;42.684;23.252;2023-01-13T00:36:03;94687.22;;;0.86;100.00
11339;BME280;5724;42.684;23.252;2023-01-13T00:38:30;94679.44;;;0.85;100.00
11339;BME280;5724;42.684;23.252;2023-01-13T00:41:10;94686.19;;;0.82;100.00
11339;BME280;5724;42.684;23.252;2023-01-13T00:43:36;94681.31;;;0.66;100.00
11339;BME280;5724;42.684;23.252;2023-01-13T00:46:03;94685.75;;;0.75;100.00
11339;BME280;5724;42.684;23.252;2023-01-13T00:48:29;94686.81;;;0.98;100.00
11339;BME280;5724;42.684;23.252;2023-01-13T00:50:57;94683.44;;;1.25;100.00
11339;BME280;5724;42.684;23.252;2023-01-13T00:53:23;94678.06;;;1.44;100.00
11339;BME280;5724;42.684;23.252;2023-01-13T00:55:49;94681.66;;;1.21;100.00
11339;BME280;5724;42.684;23.252;2023-01-13T00:58:14;94674.50;;;0.92;100.00
11339;BME280;5724;42.684;23.252;2023-01-13T01:00:40;94669.25;;;0.82;100.00
11339;BME280;5724;42.684;23.252;2023-01-13T01:03:06;94665.00;;;0.57;100.00
11339;BME280;5724;42.684;23.252;2023-01-13T01:05:39;94668.38;;;0.68;100.00
11339;BME280;5724;42.684;23.252;2023-01-13T01:08:05;94667.81;;;0.71;100.00
11339;BME280;5724;42.684;23.252;2023-01-13T01:10:30;94670.19;;;0.72;100.00
11339;BME280;5724;42.684;23.252;2023-01-13T01:12:56;94676.47;;;0.86;100.00
11339;BME280;5724;42.684;23.252;2023-01-13T01:15:21;94669.06;;;1.16;100.00
11339;BME280;5724;42.684;23.252;2023-01-13T01:17:47;94667.25;;;1.30;100.00
11339;BME280;5724;42.684;23.252;2023-01-13T01:20:12;94672.97;;;1.24;100.00
11339;BME280;5724;42.684;23.252;2023-01-13T01:22:38;94661.66;;;0.89;100.00
11339;BME280;5724;42.684;23.252;2023-01-13T01:25:03;94661.78;;;0.79;100.00
11339;BME280;5724;42.684;23.252;2023-01-13T01:27:29;94663.44;;;0.75;100.00
11339;BME280;5724;42.684;23.252;2023-01-13T01:29:54;94665.91;;;0.71;100.00
11339;BME280;5724;42.684;23.252;2023-01-13T01:32:20;94639.66;;;0.63;100.00
11339;BME280;5724;42.684;23.252;2023-01-13T01:34:45;94660.81;;;0.70;100.00
11339;BME280;5724;42.684;23.252;2023-01-13T01:37:11;94662.34;;;0.76;100.00
11339;BME280;5724;42.684;23.252;2023-01-13T01:39:37;94656.47;;;0.74;100.00
11339;BME280;5724;42.684;23.252;2023-01-13T01:42:02;94656.56;;;0.88;100.00
11339;BME280;5724;42.684;23.252;2023-01-13T01:44:57;94653.88;;;1.06;100.00
11339;BME280;5724;42.684;23.252;2023-01-13T01:47:24;94650.44;;;1.20;100.00
11339;BME280;5724;42.684;23.252;2023-01-13T01:49:51;94642.53;;;0.91;100.00
11339;BME280;5724;42.684;23.252;2023-01-13T01:52:22;94654.13;;;0.86;100.00
11339;BME280;5724;42.684;23.252;2023-01-13T01:57:38;94647.38;;;0.70;100.00
11339;BME280;5724;42.684;23.252;2023-01-13T02:00:07;94652.69;;;0.75;100.00
11339;BME280;5724;42.684;23.252;2023-01-13T02:02:34;94647.09;;;0.71;100.00
11339;BME280;5724;42.684;23.252;2023-01-13T02:05:01;94651.38;;;0.72;100.00
11339;BME280;5724;42.684;23.252;2023-01-13T02:07:31;94646.75;;;0.78;100.00
11339;BME280;5724;42.684;23.252;2023-01-13T02:10:00;94648.19;;;0.89;100.00
11339;BME280;5724;42.684;23.252;2023-01-13T02:12:27;94647.59;;;1.11;100.00
11339;BME280;5724;42.684;23.252;2023-01-13T02:15:11;94648.84;;;1.19;100.00
11339;BME280;5724;42.684;23.252;2023-01-13T02:18:06;94633.41;;;0.86;100.00
11339;BME280;5724;42.684;23.252;2023-01-13T02:20:54;94631.16;;;0.75;100.00
11339;BME280;5724;42.684;23.252;2023-01-13T02:26:44;94643.97;;;0.83;100.00
11339;BME280;5724;42.684;23.252;2023-01-13T02:29:43;94641.78;;;0.85;100.00
11339;BME280;5724;42.684;23.252;2023-01-13T02:32:41;94644.31;;;0.95;100.00
11339;BME280;5724;42.684;23.252;2023-01-13T02:35:45;94644.63;;;1.12;100.00
11339;BME280;5724;42.684;23.252;2023-01-13T02:38:07;94649.00;;;1.27;100.00
11339;BME280;5724;42.684;23.252;2023-01-13T02:40:46;94651.44;;;1.05;100.00
11339;BME280;5724;42.684;23.252;2023-01-13T02:43:18;94643.03;;;0.93;100.00
11339;BME280;5724;42.684;23.252;2023-01-13T02:46:16;94650.31;;;0.92;100.00
11339;BME280;5724;42.684;23.252;2023-01-13T02:48:45;94649.00;;;0.90;100.00
11339;BME280;5724;42.684;23.252;2023-01-13T02:51:15;94638.44;;;0.93;100.00
11339;BME280;5724;42.684;23.252;2023-01-13T02:54:03;94641.44;;;0.92;100.00
11339;BME280;5724;42.684;23.252;2023-01-13T02:56:33;94643.97;;;1.02;100.00
11339;BME280;5724;42.684;23.252;2023-01-13T02:59:01;94648.84;;;1.19;100.00
11339;BME280;5724;42.684;23.252;2023-01-13T03:01:27;94645.72;;;1.30;100.00
11339;BME280;5724;42.684;23.252;2023-01-13T03:03:52;94644.47;;;1.23;100.00
11339;BME280;5724;42.684;23.252;2023-01-13T03:06:44;94647.47;;;1.02;100.00
11339;BME280;5724;42.684;23.252;2023-01-13T03:09:27;94642.44;;;0.96;100.00
11339;BME280;5724;42.684;23.252;2023-01-13T03:12:14;94643.16;;;0.82;100.00
11339;BME280;5724;42.684;23.252;2023-01-13T03:14:50;94645.81;;;0.88;100.00
11339;BME280;5724;42.684;23.252;2023-01-13T03:22:38;94643.97;;;0.83;100.00
11339;BME280;5724;42.684;23.252;2023-01-13T03:25:24;94644.13;;;0.92;100.00
11339;BME280;5724;42.684;23.252;2023-01-13T03:27:57;94641.22;;;1.07;100.00
11339;BME280;5724;42.684;23.252;2023-01-13T03:31:08;94639.81;;;1.28;100.00
11339;BME280;5724;42.684;23.252;2023-01-13T03:33:18;94646.16;;;1.00;100.00
11339;BME280;5724;42.684;23.252;2023-01-13T03:35:52;94640.19;;;0.84;100.00
11339;BME280;5724;42.684;23.252;2023-01-13T03:38:21;94642.88;;;0.84;100.00
11339;BME280;5724;42.684;23.252;2023-01-13T03:40:57;94651.81;;;0.79;100.00
11339;BME280;5724;42.684;23.252;2023-01-13T03:43:30;94636.63;;;0.70;100.00
11339;BME280;5724;42.684;23.252;2023-01-13T03:46:33;94650.78;;;0.75;100.00
11339;BME280;5724;42.684;23.252;2023-01-13T03:49:01;94648.91;;;0.76;100.00
11339;BME280;5724;42.684;23.252;2023-01-13T03:51:30;94650.59;;;0.91;100.00
11339;BME280;5724;42.684;23.252;2023-01-13T03:54:06;94655.69;;;1.11;100.00
11339;BME280;5724;42.684;23.252;2023-01-13T03:56:45;94653.28;;;1.09;100.00
11339;BME280;5724;42.684;23.252;2023-01-13T03:59:18;94650.38;;;0.87;100.00
11339;BME280;5724;42.684;23.252;2023-01-13T04:02:17;94649.69;;;0.76;100.00
11339;BME280;5724;42.684;23.252;2023-01-13T04:05:05;94650.78;;;0.75;100.00
11339;BME280;5724;42.684;23.252;2023-01-13T04:07:50;94652.47;;;0.71;100.00
11339;BME280;5724;42.684;23.252;2023-01-13T04:10:31;94649.63;;;0.63;100.00
11339;BME280;5724;42.684;23.252;2023-01-13T04:13:02;94652.47;;;0.71;100.00
11339;BME280;5724;42.684;23.252;2023-01-13T04:15:36;94658.06;;;0.75;100.00
11339;BME280;5724;42.684;23.252;2023-01-13T04:20:37;94666.59;;;1.20;100.00
11339;BME280;5724;42.684;23.252;2023-01-13T04:23:04;94659.75;;;1.08;100.00
11339;BME280;5724;42.684;23.252;2023-01-13T04:25:30;94657.63;;;0.86;100.00
11339;BME280;5724;42.684;23.252;2023-01-13T04:27:55;94663.88;;;0.82;100.00
11339;BME280;5724;42.684;23.252;2023-01-13T04:30:21;94669.09;;;0.73;100.00
11339;BME280;5724;42.684;23.252;2023-01-13T04:32:46;94664.59;;;0.69;100.00
11339;BME280;5724;42.684;23.252;2023-01-13T04:35:12;94670.78;;;0.69;100.00
11339;BME280;5724;42.684;23.252;2023-01-13T04:37:37;94664.03;;;0.72;100.00
11339;BME280;5724;42.684;23.252;2023-01-13T04:40:03;94666.88;;;0.80;100.00
11339;BME280;5724;42.684;23.252;2023-01-13T04:42:29;94674.88;;;1.04;100.00
11339;BME280;5724;42.684;23.252;2023-01-13T04:44:54;94677.06;;;1.21;100.00
11339;BME280;5724;42.684;23.252;2023-01-13T04:47:21;94672.91;;;0.91;100.00
11339;BME280;5724;42.684;23.252;2023-01-13T04:49:46;94666.72;;;0.72;100.00
11339;BME280;5724;42.684;23.252;2023-01-13T04:52:11;94669.19;;;0.68;100.00
11339;BME280;5724;42.684;23.252;2023-01-13T04:54:37;94679.56;;;0.75;100.00
11339;BME280;5724;42.684;23.252;2023-01-13T04:57:02;94677.75;;;0.70;100.00
11339;BME280;5724;42.684;23.252;2023-01-13T04:59:28;94678.28;;;0.72;100.00
11339;BME280;5724;42.684;23.252;2023-01-13T05:01:53;94667.00;;;0.70;100.00
11339;BME280;5724;42.684;23.252;2023-01-13T05:04:19;94671.63;;;0.65;100.00
11339;BME280;5724;42.684;23.252;2023-01-13T05:06:44;94680.25;;;0.85;100.00
11339;BME280;5724;42.684;23.252;2023-01-13T05:09:10;94684.41;;;1.15;100.00
11339;BME280;5724;42.684;23.252;2023-01-13T05:11:36;94684.13;;;0.98;100.00
11339;BME280;5724;42.684;23.252;2023-01-13T05:14:20;94680.25;;;0.85;100.00
11339;BME280;5724;42.684;23.252;2023-01-13T05:17:04;94681.84;;;0.68;100.00
11339;BME280;5724;42.684;23.252;2023-01-13T05:19:33;94690.53;;;0.60;100.00
11339;BME280;5724;42.684;23.252;2023-01-13T05:22:00;94684.56;;;0.63;100.00
11339;BME280;5724;42.684;23.252;2023-01-13T05:24:56;94689.66;;;0.64;100.00
11339;BME280;5724;42.684;23.252;2023-01-13T05:27:40;94686.25;;;0.59;100.00
11339;BME280;5724;42.684;23.252;2023-01-13T05:30:07;94688.34;;;0.62;100.00
11339;BME280;5724;42.684;23.252;2023-01-13T05:32:32;94689.44;;;0.61;100.00
11339;BME280;5724;42.684;23.252;2023-01-13T05:34:58;94686.38;;;0.91;100.00
11339;BME280;5724;42.684;23.252;2023-01-13T05:37:24;94693.66;;;1.09;100.00
11339;BME280;5724;42.684;23.252;2023-01-13T05:39:50;94683.16;;;0.89;100.00
11339;BME280;5724;42.684;23.252;2023-01-13T05:42:34;94680.75;;;0.69;100.00
11339;BME280;5724;42.684;23.252;2023-01-13T05:45:18;94684.53;;;0.68;100.00
11339;BME280;5724;42.684;23.252;2023-01-13T05:47:43;94677.66;;;0.56;100.00
11339;BME280;5724;42.684;23.252;2023-01-13T05:50:09;94677.66;;;0.56;100.00
11339;BME280;5724;42.684;23.252;2023-01-13T05:52:35;94689.19;;;0.57;100.00
11339;BME280;5724;42.684;23.252;2023-01-13T05:55:00;94693.50;;;0.58;100.00
11339;BME280;5724;42.684;23.252;2023-01-13T05:57:26;94696.22;;;0.58;100.00
11339;BME280;5724;42.684;23.252;2023-01-13T05:59:51;94695.16;;;0.78;100.00
11339;BME280;5724;42.684;23.252;2023-01-13T06:02:17;94705.66;;;0.98;100.00
11339;BME280;5724;42.684;23.252;2023-01-13T06:04:42;94684.19;;;0.93;100.00
11339;BME280;5724;42.684;23.252;2023-01-13T06:07:08;94700.28;;;0.74;100.00
11339;BME280;5724;42.684;23.252;2023-01-13T06:09:33;94707.19;;;0.62;100.00
11339;BME280;5724;42.684;23.252;2023-01-13T06:11:59;94705.06;;;0.59;100.00
11339;BME280;5724;42.684;23.252;2023-01-13T06:14:24;94708.59;;;0.54;100.00
11339;BME280;5724;42.684;23.252;2023-01-13T06:16:49;94709.34;;;0.60;100.00
11339;BME280;5724;42.684;23.252;2023-01-13T06:19:15;94713.19;;;0.53;100.00
11339;BME280;5724;42.684;23.252;2023-01-13T06:21:41;94715.28;;;0.56;100.00
11339;BME280;5724;42.684;23.252;2023-01-13T06:24:09;94722.72;;;0.65;100.00
11339;BME280;5724;42.684;23.252;2023-01-13T06:26:38;94716.75;;;0.92;100.00
11339;BME280;5724;42.684;23.252;2023-01-13T06:29:04;94717.38;;;1.07;100.00
11339;BME280;5724;42.684;23.252;2023-01-13T06:31:30;94724.59;;;0.88;100.00
11339;BME280;5724;42.684;23.252;2023-01-13T06:34:07;94719.47;;;0.68;100.00
11339;BME280;5724;42.684;23.252;2023-01-13T06:36:38;94717.84;;;0.67;100.00
11339;BME280;5724;42.684;23.252;2023-01-13T06:39:05;94711.88;;;0.51;100.00
11339;BME280;5724;42.684;23.252;2023-01-13T06:41:32;94713.13;;;0.59;100.00
11339;BME280;5724;42.684;23.252;2023-01-13T06:44:17;94716.34;;;0.61;100.00
11339;BME280;5724;42.684;23.252;2023-01-13T06:46:44;94720.00;;;0.70;100.00
11339;BME280;5724;42.684;23.252;2023-01-13T06:49:10;94722.09;;;0.73;100.00
11339;BME280;5724;42.684;23.252;2023-01-13T06:51:35;94715.34;;;0.75;100.00
11339;BME280;5724;42.684;23.252;2023-01-13T06:54:01;94719.91;;;0.75;100.00
11339;BME280;5724;42.684;23.252;2023-01-13T06:56:26;94696.94;;;0.64;100.00
11339;BME280;5724;42.684;23.252;2023-01-13T06:58:52;94723.06;;;0.82;100.00
11339;BME280;5724;42.684;23.252;2023-01-13T07:01:17;94718.47;;;1.06;100.00
11339;BME280;5724;42.684;23.252;2023-01-13T07:03:43;94722.53;;;1.23;100.00
11339;BME280;5724;42.684;23.252;2023-01-13T07:06:08;94719.13;;;1.17;100.00
11339;BME280;5724;42.684;23.252;2023-01-13T07:08:34;94716.97;;;0.95;100.00
11339;BME280;5724;42.684;23.252;2023-01-13T07:11:02;94714.88;;;0.92;100.00
11339;BME280;5724;42.684;23.252;2023-01-13T07:13:28;94711.66;;;0.90;100.00
11339;BME280;5724;42.684;23.252;2023-01-13T07:16:12;94713.78;;;0.93;100.00
11339;BME280;5724;42.684;23.252;2023-01-13T07:18:38;94712.13;;;0.97;100.00
11339;BME280;5724;42.684;23.252;2023-01-13T07:23:31;94709.44;;;0.97;100.00
11339;BME280;5724;42.684;23.252;2023-01-13T07:25:58;94707.69;;;1.06;100.00
11339;BME280;5724;42.684;23.252;2023-01-13T07:28:25;94707.41;;;1.08;100.00
11339;BME280;5724;42.684;23.252;2023-01-13T07:30:51;94710.59;;;1.29;100.00
11339;BME280;5724;42.684;23.252;2023-01-13T07:33:17;94699.09;;;1.42;100.00
11339;BME280;5724;42.684;23.252;2023-01-13T07:35:47;94710.47;;;1.71;100.00
11339;BME280;5724;42.684;23.252;2023-01-13T07:38:13;94711.41;;;1.81;100.00
11339;BME280;5724;42.684;23.252;2023-01-13T07:40:39;94702.50;;;1.99;100.00
11339;BME280;5724;42.684;23.252;2023-01-13T07:43:04;94710.66;;;1.94;100.00
11339;BME280;5724;42.684;23.252;2023-01-13T07:45:48;94712.34;;;1.57;100.00
11339;BME280;5724;42.684;23.252;2023-01-13T07:48:14;94707.66;;;1.44;100.00
11339;BME280;5724;42.684;23.252;2023-01-13T07:50:39;94715.84;;;1.39;100.00
11339;BME280;5724;42.684;23.252;2023-01-13T07:53:05;94710.44;;;1.39;100.00
11339;BME280;5724;42.684;23.252;2023-01-13T07:55:30;94716.47;;;1.31;100.00
11339;BME280;5724;42.684;23.252;2023-01-13T07:57:56;94715.09;;;1.33;100.00
11339;BME280;5724;42.684;23.252;2023-01-13T08:00:22;94718.97;;;1.46;100.00
11339;BME280;5724;42.684;23.252;2023-01-13T08:02:47;94719.00;;;1.79;100.00
11339;BME280;5724;42.684;23.252;2023-01-13T08:05:13;94730.34;;;1.94;100.00
11339;BME280;5724;42.684;23.252;2023-01-13T08:07:38;94724.84;;;1.99;100.00
11339;BME280;5724;42.684;23.252;2023-01-13T08:10:05;94723.69;;;2.19;100.00
11339;BME280;5724;42.684;23.252;2023-01-13T08:12:31;94728.16;;;1.78;100.00
11339;BME280;5724;42.684;23.252;2023-01-13T08:15:15;94714.38;;;1.65;100.00
11339;BME280;5724;42.684;23.252;2023-01-13T08:17:40;94723.00;;;1.62;100.00
11339;BME280;5724;42.684;23.252;2023-01-13T08:20:07;94721.06;;;1.49;100.00
11339;BME280;5724;42.684;23.252;2023-01-13T08:22:32;94710.44;;;1.39;100.00
11339;BME280;5724;42.684;23.252;2023-01-13T08:24:58;94717.50;;;1.35;100.00
11339;BME280;5724;42.684;23.252;2023-01-13T08:27:24;94721.56;;;1.51;100.00
11339;BME280;5724;42.684;23.252;2023-01-13T08:29:49;94727.09;;;1.60;100.00
11339;BME280;5724;42.684;23.252;2023-01-13T08:32:15;94720.25;;;1.67;100.00
11339;BME280;5724;42.684;23.252;2023-01-13T08:34:40;94722.44;;;1.98;100.00
11339;BME280;5724;42.684;23.252;2023-01-13T08:37:06;94729.94;;;2.34;100.00
11339;BME280;5724;42.684;23.252;2023-01-13T08:39:31;94724.66;;;2.56;100.00
11339;BME280;5724;42.684;23.252;2023-01-13T08:41:57;94727.44;;;2.51;100.00
11339;BME280;5724;42.684;23.252;2023-01-13T08:44:29;94712.09;;;2.05;100.00
11339;BME280;5724;42.684;23.252;2023-01-13T08:46:55;94734.31;;;1.97;100.00
11339;BME280;5724;42.684;23.252;2023-01-13T08:49:21;94726.31;;;1.92;100.00
11339;BME280;5724;42.684;23.252;2023-01-13T08:51:47;94730.56;;;1.79;100.00
11339;BME280;5724;42.684;23.252;2023-01-13T08:54:14;94715.81;;;1.77;100.00
11339;BME280;5724;42.684;23.252;2023-01-13T08:56:40;94726.41;;;1.87;100.00
11339;BME280;5724;42.684;23.252;2023-01-13T08:59:10;94716.63;;;1.91;100.00
11339;BME280;5724;42.684;23.252;2023-01-13T09:01:36;94733.47;;;2.15;100.00
11339;BME280;5724;42.684;23.252;2023-01-13T09:04:04;94724.84;;;2.46;100.00
11339;BME280;5724;42.684;23.252;2023-01-13T09:06:30;94728.75;;;2.81;100.00
11339;BME280;5724;42.684;23.252;2023-01-13T09:08:55;94722.03;;;2.51;100.00
11339;BME280;5724;42.684;23.252;2023-01-13T09:11:27;94730.91;;;2.38;100.00
11339;BME280;5724;42.684;23.252;2023-01-13T09:14:16;94725.28;;;2.20;100.00
11339;BME280;5724;42.684;23.252;2023-01-13T09:16:42;94721.09;;;2.14;100.00
11339;BME280;5724;42.684;23.252;2023-01-13T09:19:08;94724.28;;;2.16;100.00
11339;BME280;5724;42.684;23.252;2023-01-13T09:21:33;94717.13;;;2.25;100.00
11339;BME280;5724;42.684;23.252;2023-01-13T09:23:59;94724.22;;;2.35;100.00
11339;BME280;5724;42.684;23.252;2023-01-13T09:26:24;94718.94;;;2.44;100.00
11339;BME280;5724;42.684;23.252;2023-01-13T09:28:49;94718.38;;;2.74;100.00
11339;BME280;5724;42.684;23.252;2023-01-13T09:31:15;94717.25;;;2.75;100.00
11339;BME280;5724;42.684;23.252;2023-01-13T09:33:40;94713.84;;;3.11;100.00
11339;BME280;5724;42.684;23.252;2023-01-13T09:36:25;94707.38;;;2.71;100.00
11339;BME280;5724;42.684;23.252;2023-01-13T09:38:50;94715.56;;;2.52;100.00
11339;BME280;5724;42.684;23.252;2023-01-13T09:41:21;94713.75;;;2.47;100.00
11339;BME280;5724;42.684;23.252;2023-01-13T09:44:10;94715.41;;;2.29;100.00
11339;BME280;5724;42.684;23.252;2023-01-13T09:46:42;94713.88;;;2.42;100.00
11339;BME280;5724;42.684;23.252;2023-01-13T09:49:19;94716.94;;;2.36;100.00
11339;BME280;5724;42.684;23.252;2023-01-13T09:51:53;94713.25;;;2.59;100.00
11339;BME280;5724;42.684;23.252;2023-01-13T09:54:43;94711.97;;;2.84;100.00
11339;BME280;5724;42.684;23.252;2023-01-13T09:57:11;94709.75;;;3.00;100.00
11339;BME280;5724;42.684;23.252;2023-01-13T09:59:37;94702.00;;;2.71;100.00
11339;BME280;5724;42.684;23.252;2023-01-13T10:02:20;94699.09;;;2.81;100.00
11339;BME280;5724;42.684;23.252;2023-01-13T10:05:27;94693.19;;;2.65;100.00
11339;BME280;5724;42.684;23.252;2023-01-13T10:07:58;94698.75;;;2.69;100.00
11339;BME280;5724;42.684;23.252;2023-01-13T10:12:59;94694.38;;;2.86;100.00
11339;BME280;5724;42.684;23.252;2023-01-13T10:26:32;94688.22;;;3.22;100.00
11339;BME280;5724;42.684;23.252;2023-01-13T10:29:17;94690.69;;;3.32;100.00
11339;BME280;5724;42.684;23.252;2023-01-13T10:31:43;94680.88;;;3.36;100.00
11339;BME280;5724;42.684;23.252;2023-01-13T10:34:08;94682.75;;;3.36;100.00
11339;BME280;5724;42.684;23.252;2023-01-13T10:36:34;94679.75;;;3.37;100.00
11339;BME280;5724;42.684;23.252;2023-01-13T10:39:14;94676.88;;;3.34;100.00
11339;BME280;5724;42.684;23.252;2023-01-13T10:41:40;94669.53;;;3.12;100.00
11339;BME280;5724;42.684;23.252;2023-01-13T10:44:14;94670.66;;;3.11;100.00
11339;BME280;5724;42.684;23.252;2023-01-13T10:46:54;94675.97;;;3.02;100.00
11339;BME280;5724;42.684;23.252;2023-01-13T10:51:53;94669.22;;;3.13;100.00
11339;BME280;5724;42.684;23.252;2023-01-13T10:54:21;94665.97;;;3.03;100.00
11339;BME280;5724;42.684;23.252;2023-01-13T10:56:47;94669.84;;;3.10;100.00
11339;BME280;5724;42.684;23.252;2023-01-13T10:59:24;94664.53;;;3.19;100.00
11339;BME280;5724;42.684;23.252;2023-01-13T11:02:01;94661.09;;;3.27;100.00
11339;BME280;5724;42.684;23.252;2023-01-13T11:04:34;94664.53;;;3.19;100.00
11339;BME280;5724;42.684;23.252;2023-01-13T11:07:02;94659.63;;;3.21;100.00
11339;BME280;5724;42.684;23.252;2023-01-13T11:09:29;94657.91;;;3.25;100.00
11339;BME280;5724;42.684;23.252;2023-01-13T11:11:55;94660.06;;;3.37;100.00
11339;BME280;5724;42.684;23.252;2023-01-13T11:14:31;94660.66;;;3.48;100.00
11339;BME280;5724;42.684;23.252;2023-01-13T11:17:40;94657.13;;;3.47;100.00
11339;BME280;5724;42.684;23.252;2023-01-13T11:20:35;94657.56;;;3.40;100.00
11339;BME280;5724;42.684;23.252;2023-01-13T11:23:36;94659.31;;;3.23;100.00
11339;BME280;5724;42.684;23.252;2023-01-13T11:26:13;94657.50;;;3.18;100.00
11339;BME280;5724;42.684;23.252;2023-01-13T11:28:55;94646.31;;;3.25;100.00
11339;BME280;5724;42.684;23.252;2023-01-13T11:31:41;94647.91;;;3.26;100.00
11339;BME280;5724;42.684;23.252;2023-01-13T11:35:16;94655.34;;;3.06;100.00
11339;BME280;5724;42.684;23.252;2023-01-13T11:37:22;94644.38;;;3.03;100.00
11339;BME280;5724;42.684;23.252;2023-01-13T11:40:15;94646.66;;;3.09;100.00
11339;BME280;5724;42.684;23.252;2023-01-13T11:42:53;94641.19;;;3.01;100.00
11339;BME280;5724;42.684;23.252;2023-01-13T11:45:23;94645.56;;;2.97;100.00
11339;BME280;5724;42.684;23.252;2023-01-13T11:47:53;94633.09;;;3.01;100.00
11339;BME280;5724;42.684;23.252;2023-01-13T11:53:48;94638.75;;;3.13;100.00
11339;BME280;5724;42.684;23.252;2023-01-13T12:13:01;94630.47;;;3.32;100.00
11339;BME280;5724;42.684;23.252;2023-01-13T12:23:37;94621.03;;;3.43;100.00
11339;BME280;5724;42.684;23.252;2023-01-13T12:26:07;94598.53;;;3.48;100.00
11339;BME280;5724;42.684;23.252;2023-01-13T12:29:05;94618.38;;;3.74;100.00
11339;BME280;5724;42.684;23.252;2023-01-13T12:31:34;94616.28;;;3.71;100.00
11339;BME280;5724;42.684;23.252;2023-01-13T12:45:22;94629.13;;;3.65;99.10
11339;BME280;5724;42.684;23.252;2023-01-13T12:47:48;94624.56;;;3.74;99.82
11339;BME280;5724;42.684;23.252;2023-01-13T12:52:53;94625.31;;;3.89;96.42
11339;BME280;5724;42.684;23.252;2023-01-13T12:55:20;94602.03;;;3.79;97.44
11339;BME280;5724;42.684;23.252;2023-01-13T12:58:14;94624.25;;;3.76;96.73
11339;BME280;5724;42.684;23.252;2023-01-13T13:05:56;94622.00;;;3.69;97.47
11339;BME280;5724;42.684;23.252;2023-01-13T13:13:56;94628.63;;;3.63;96.58
11339;BME280;5724;42.684;23.252;2023-01-13T13:19:38;94635.22;;;3.71;96.07
11339;BME280;5724;42.684;23.252;2023-01-13T13:28:07;94639.25;;;3.82;95.85
11339;BME280;5724;42.684;23.252;2023-01-13T13:30:38;94633.84;;;3.82;95.26
11339;BME280;5724;42.684;23.252;2023-01-13T13:33:18;94620.47;;;3.77;95.90
11339;BME280;5724;42.684;23.252;2023-01-13T13:41:33;94640.25;;;3.86;94.54
11339;BME280;5724;42.684;23.252;2023-01-13T13:44:26;94642.94;;;3.86;94.20
11339;BME280;5724;42.684;23.252;2023-01-13T13:47:12;94608.03;;;3.76;94.84
11339;BME280;5724;42.684;23.252;2023-01-13T13:49:42;94637.50;;;4.09;93.82
11339;BME280;5724;42.684;23.252;2023-01-13T13:52:29;94641.63;;;4.06;93.48
11339;BME280;5724;42.684;23.252;2023-01-13T13:55:05;94644.34;;;4.06;94.43
11339;BME280;5724;42.684;23.252;2023-01-13T13:57:37;94635.53;;;4.00;94.45
11339;BME280;5724;42.684;23.252;2023-01-13T14:00:29;94649.59;;;4.11;93.78
11339;BME280;5724;42.684;23.252;2023-01-13T14:03:04;94641.78;;;4.10;93.63
11339;BME280;5724;42.684;23.252;2023-01-13T14:05:34;94642.06;;;3.99;93.49
11339;BME280;5724;42.684;23.252;2023-01-13T14:08:08;94641.44;;;4.02;93.76
11339;BME280;5724;42.684;23.252;2023-01-13T14:10:39;94644.13;;;4.02;94.44
11339;BME280;5724;42.684;23.252;2023-01-13T14:13:24;94643.22;;;4.07;94.04
11339;BME280;5724;42.684;23.252;2023-01-13T14:16:00;94639.03;;;4.01;93.54
11339;BME280;5724;42.684;23.252;2023-01-13T14:18:45;94640.94;;;4.00;94.09
11339;BME280;5724;42.684;23.252;2023-01-13T14:21:18;94639.47;;;3.94;94.05
11339;BME280;5724;42.684;23.252;2023-01-13T14:23:53;94648.25;;;4.00;94.09
11339;BME280;5724;42.684;23.252;2023-01-13T14:26:27;94645.28;;;4.10;94.40
11339;BME280;5724;42.684;23.252;2023-01-13T14:28:54;94651.81;;;4.09;94.78
11339;BME280;5724;42.684;23.252;2023-01-13T14:31:20;94649.13;;;4.09;94.32
11339;BME280;5724;42.684;23.252;2023-01-13T14:33:54;94658.41;;;3.94;98.88
11339;BME280;5724;42.684;23.252;2023-01-13T14:36:22;94653.06;;;3.81;100.00
11339;BME280;5724;42.684;23.252;2023-01-13T14:46:40;94649.00;;;3.47;100.00
11339;BME280;5724;42.684;23.252;2023-01-13T14:49:39;94657.25;;;3.42;100.00
11339;BME280;5724;42.684;23.252;2023-01-13T14:57:11;94658.50;;;3.22;100.00
11339;BME280;5724;42.684;23.252;2023-01-13T14:59:47;94659.50;;;3.26;100.00
11339;BME280;5724;42.684;23.252;2023-01-13T15:10:47;94670.28;;;2.90;100.00
11339;BME280;5724;42.684;23.252;2023-01-13T15:15:52;94669.59;;;2.84;100.00
11339;BME280;5724;42.684;23.252;2023-01-13T15:18:18;94662.47;;;2.88;100.00
11339;BME280;5724;42.684;23.252;2023-01-13T15:20:44;94658.09;;;2.93;100.00
11339;BME280;5724;42.684;23.252;2023-01-13T15:23:10;94664.28;;;2.93;100.00
11339;BME280;5724;42.684;23.252;2023-01-13T15:25:41;94663.56;;;2.87;100.00
11339;BME280;5724;42.684;23.252;2023-01-13T15:28:15;94644.41;;;2.75;100.00
11339;BME280;5724;42.684;23.252;2023-01-13T15:30:42;94666.28;;;2.87;100.00
11339;BME280;5724;42.684;23.252;2023-01-13T15:33:08;94668.97;;;2.87;100.00